Time;durP1;ratioP1;P1;durP2;ratioP2;P2;SDS_P1;SDS_P2;PMS_P1;PMS_P2;Temp;Humidity;BMP_temperature;BMP_pressure;BME280_temperature;BME280_humidity;BME280_pressure;Samples;Min_cycle;Max_cycle;Signal;HPM_P1;HPM_P2
2023/05/29 00:00:33;;;;;;;4.90;3.00;;;;;;;18.26;41.77;97304.22;4904623;28;20344;-79
2023/05/29 00:02:58;;;;;;;4.93;2.30;;;;;;;18.47;41.82;97299.38;4913930;28;20268;-78
2023/05/29 00:05:24;;;;;;;3.80;2.97;;;;;;;18.43;41.01;97285.22;4912542;28;20162;-78
2023/05/29 00:07:50;;;;;;;4.32;2.30;;;;;;;18.39;41.37;97292.16;4903979;28;20442;-79
2023/05/29 00:10:16;;;;;;;3.20;2.30;;;;;;;18.09;42.23;97301.38;4910568;28;20248;-79
2023/05/29 00:12:42;;;;;;;4.72;2.20;;;;;;;18.05;42.44;97298.53;4912363;28;20349;-79
2023/05/29 00:15:09;;;;;;;4.95;2.00;;;;;;;18.01;42.01;97302.81;4915952;28;20091;-79
2023/05/29 00:17:35;;;;;;;5.65;2.33;;;;;;;17.96;42.88;97287.09;4888296;28;20298;-79
2023/05/29 00:20:03;;;;;;;5.00;2.72;;;;;;;17.97;43.02;97301.81;4910748;28;20265;-79
2023/05/29 00:22:28;;;;;;;3.75;2.22;;;;;;;18.09;42.51;97294.25;4931384;28;20273;-79
2023/05/29 00:24:54;;;;;;;3.85;2.38;;;;;;;18.02;42.33;97288.56;4907091;28;20369;-79
2023/05/29 00:27:20;;;;;;;3.42;2.30;;;;;;;18.19;42.34;97288.00;4902837;28;20603;-79
2023/05/29 00:29:46;;;;;;;3.60;2.53;;;;;;;18.06;42.29;97294.84;4904010;28;20448;-79
2023/05/29 00:32:11;;;;;;;4.60;2.50;;;;;;;17.97;42.45;97291.28;4897871;28;20187;-78
2023/05/29 00:34:37;;;;;;;3.58;2.22;;;;;;;17.83;42.67;97295.72;4903638;28;20545;-78
2023/05/29 00:37:02;;;;;;;3.85;2.42;;;;;;;17.94;42.74;97286.59;4904998;28;20328;-78
2023/05/29 00:39:28;;;;;;;4.05;2.50;;;;;;;17.95;42.91;97303.97;4909079;28;20414;-79
2023/05/29 00:41:53;;;;;;;4.90;2.80;;;;;;;17.92;43.21;97294.00;4923973;28;20342;-79
2023/05/29 00:44:20;;;;;;;4.13;2.50;;;;;;;17.86;42.76;97298.59;4920099;28;20284;-79
2023/05/29 00:46:46;;;;;;;3.70;2.50;;;;;;;17.88;42.56;97293.03;4926514;28;20376;-79
2023/05/29 00:49:12;;;;;;;4.50;2.58;;;;;;;17.88;42.79;97287.75;4919365;28;20340;-79
2023/05/29 00:51:38;;;;;;;3.35;2.40;;;;;;;17.85;42.70;97288.31;4896246;28;20321;-78
2023/05/29 00:54:06;;;;;;;4.80;2.60;;;;;;;17.83;43.22;97291.22;4901194;28;20286;-79
2023/05/29 00:56:32;;;;;;;3.28;2.58;;;;;;;17.76;43.20;97291.59;4903756;28;20320;-79
2023/05/29 00:58:57;;;;;;;4.72;2.42;;;;;;;17.68;43.09;97289.59;4904457;28;20458;-79
2023/05/29 01:01:24;;;;;;;4.47;2.30;;;;;;;17.63;43.15;97287.06;4890119;28;20421;-79
2023/05/29 01:03:50;;;;;;;4.85;2.83;;;;;;;17.59;43.90;97296.59;4897753;23;20218;-76
2023/05/29 01:06:15;;;;;;;5.32;2.78;;;;;;;17.53;43.77;97285.38;4881645;28;20228;-77
2023/05/29 01:08:41;;;;;;;5.55;2.97;;;;;;;17.39;43.97;97282.69;4850462;29;20339;-77
2023/05/29 01:11:33;;;;;;;7.10;2.75;;;;;;;17.49;44.64;97283.59;4853877;28;20469;-77
2023/05/29 01:14:05;;;;;;;4.57;2.55;;;;;;;17.39;44.19;97290.59;4864826;28;20100;-76
2023/05/29 01:16:35;;;;;;;4.55;2.40;;;;;;;17.29;44.76;97282.84;4900773;28;20161;-77
2023/05/29 01:19:18;;;;;;;4.43;2.60;;;;;;;17.20;44.72;97285.31;4827785;29;20039;-77
2023/05/29 01:22:06;;;;;;;4.15;2.65;;;;;;;17.23;44.86;97294.47;4885149;28;20034;-77
2023/05/29 01:24:38;;;;;;;4.00;2.75;;;;;;;17.09;45.13;97291.78;4842210;28;20153;-78
2023/05/29 01:27:05;;;;;;;4.20;2.60;;;;;;;16.84;45.82;97279.72;4855411;29;20039;-77
2023/05/29 01:29:34;;;;;;;5.05;2.80;;;;;;;16.87;46.21;97287.06;4882742;28;20379;-77
2023/05/29 01:32:01;;;;;;;4.80;2.72;;;;;;;17.04;45.52;97287.34;4855563;28;20117;-77
2023/05/29 01:34:27;;;;;;;3.78;2.35;;;;;;;17.03;45.48;97283.19;4872310;28;20023;-77
2023/05/29 01:36:53;;;;;;;5.15;2.72;;;;;;;17.00;45.39;97282.97;4875436;28;20026;-77
2023/05/29 01:39:20;;;;;;;3.53;2.70;;;;;;;16.97;45.34;97286.94;4868245;28;20971;-77
2023/05/29 01:41:45;;;;;;;5.53;2.67;;;;;;;16.90;45.88;97286.50;4855746;29;20340;-77
2023/05/29 01:44:12;;;;;;;5.50;2.55;;;;;;;17.07;45.31;97286.03;4885433;28;20031;-77
2023/05/29 01:46:38;;;;;;;3.95;2.63;;;;;;;17.00;45.41;97290.84;4873778;28;20039;-77
2023/05/29 01:49:04;;;;;;;3.95;2.42;;;;;;;17.12;45.37;97295.66;4875807;28;20039;-77
2023/05/29 01:51:31;;;;;;;4.15;2.60;;;;;;;17.01;45.21;97292.41;4843197;29;20047;-77
2023/05/29 01:53:57;;;;;;;4.45;2.72;;;;;;;17.06;45.48;97296.81;4853371;28;20043;-77
2023/05/29 01:56:26;;;;;;;4.18;2.55;;;;;;;17.03;45.66;97296.34;4871028;28;20311;-76
2023/05/29 01:58:53;;;;;;;3.05;2.42;;;;;;;16.94;45.77;97295.38;4886818;28;20042;-76
2023/05/29 02:01:20;;;;;;;6.60;2.60;;;;;;;16.87;45.78;97289.69;4878458;28;20118;-77
2023/05/29 02:03:47;;;;;;;3.72;2.58;;;;;;;16.71;46.06;97288.25;4871150;29;20027;-77
2023/05/29 02:06:12;;;;;;;5.78;2.95;;;;;;;16.62;46.13;97286.28;4843334;29;20114;-76
2023/05/29 02:08:38;;;;;;;4.38;2.83;;;;;;;16.54;46.66;97280.84;4860355;29;20171;-77
2023/05/29 02:11:03;;;;;;;5.50;2.83;;;;;;;16.47;46.58;97289.06;4839803;28;20561;-76
2023/05/29 02:13:29;;;;;;;3.20;2.22;;;;;;;16.49;46.58;97289.56;4845227;28;20983;-77
2023/05/29 02:15:54;;;;;;;3.80;2.20;;;;;;;16.51;46.84;97291.91;4857650;29;20362;-76
2023/05/29 02:18:20;;;;;;;4.45;2.45;;;;;;;16.48;46.45;97285.38;4858480;29;20403;-76
2023/05/29 02:20:46;;;;;;;4.22;2.60;;;;;;;16.50;46.54;97283.22;4854132;29;20289;-76
2023/05/29 02:23:11;;;;;;;4.75;2.90;;;;;;;16.46;47.03;97283.00;4873687;28;20410;-76
2023/05/29 02:25:36;;;;;;;4.55;2.63;;;;;;;16.12;47.57;97282.31;4857759;29;20208;-76
2023/05/29 02:28:03;;;;;;;4.47;2.53;;;;;;;16.32;47.28;97283.97;4857676;29;20528;-77
2023/05/29 02:30:28;;;;;;;8.95;2.65;;;;;;;16.39;47.22;97292.31;4842832;29;20264;-76
2023/05/29 02:32:54;;;;;;;4.28;2.70;;;;;;;16.35;47.18;97286.03;4858391;29;20447;-76
2023/05/29 02:35:22;;;;;;;4.70;2.58;;;;;;;16.27;47.12;97282.94;4842309;29;20117;-76
2023/05/29 02:37:48;;;;;;;5.03;2.88;;;;;;;16.33;47.49;97282.91;4839332;29;20106;-76
2023/05/29 02:40:13;;;;;;;3.85;2.22;;;;;;;16.13;47.63;97273.38;4842134;28;20276;-76
2023/05/29 02:42:39;;;;;;;4.90;2.92;;;;;;;16.22;47.82;97272.50;4840385;28;20314;-77
2023/05/29 02:45:05;;;;;;;4.50;2.78;;;;;;;16.29;47.27;97283.44;4856841;28;20213;-77
2023/05/29 02:47:31;;;;;;;4.50;2.80;;;;;;;16.40;47.41;97278.88;4876471;28;20205;-77
2023/05/29 02:49:56;;;;;;;4.10;2.75;;;;;;;16.38;47.16;97275.75;4874478;28;20295;-76
2023/05/29 02:52:22;;;;;;;3.88;2.40;;;;;;;16.36;47.79;97279.72;4858373;29;20325;-77
2023/05/29 02:54:48;;;;;;;5.20;2.70;;;;;;;16.41;47.12;97277.03;4841377;29;20227;-77
2023/05/29 02:57:15;;;;;;;3.67;2.42;;;;;;;16.35;47.00;97281.56;4879088;28;20371;-77
2023/05/29 02:59:45;;;;;;;4.25;2.70;;;;;;;16.34;47.37;97281.84;4842653;28;20109;-77
2023/05/29 03:02:11;;;;;;;3.55;2.60;;;;;;;16.39;47.82;97284.41;4857979;29;20086;-77
2023/05/29 03:04:36;;;;;;;4.18;2.15;;;;;;;16.45;46.99;97278.84;4875832;28;20423;-77
2023/05/29 03:07:02;;;;;;;3.67;2.60;;;;;;;16.40;47.18;97276.25;4844737;29;20577;-76
2023/05/29 03:09:27;;;;;;;4.40;2.30;;;;;;;16.54;47.17;97276.38;4841223;29;20248;-76
2023/05/29 03:11:53;;;;;;;4.90;2.63;;;;;;;16.54;47.04;97276.38;4839342;29;20375;-76
2023/05/29 03:14:18;;;;;;;5.20;2.60;;;;;;;16.57;46.58;97278.44;4855904;29;20304;-77
2023/05/29 03:16:44;;;;;;;4.65;2.95;;;;;;;16.60;46.67;97285.75;4847516;29;20218;-76
2023/05/29 03:19:10;;;;;;;4.85;2.38;;;;;;;16.57;47.18;97286.34;4845855;28;20376;-77
2023/05/29 03:21:36;;;;;;;4.30;2.47;;;;;;;16.54;47.38;97280.84;4864658;29;20331;-77
2023/05/29 03:24:02;;;;;;;4.78;2.50;;;;;;;16.55;46.66;97274.50;4872240;28;20031;-76
2023/05/29 03:26:28;;;;;;;3.90;2.70;;;;;;;16.52;46.50;97268.00;4840873;29;20208;-77
2023/05/29 03:28:54;;;;;;;3.90;2.47;;;;;;;16.54;47.05;97270.34;4834066;29;20345;-77
2023/05/29 03:31:20;;;;;;;4.18;2.30;;;;;;;16.50;47.38;97262.22;4873723;28;20357;-77
2023/05/29 03:33:46;;;;;;;4.03;2.60;;;;;;;16.47;46.95;97276.69;4849583;29;20550;-77
2023/05/29 03:36:12;;;;;;;4.97;2.85;;;;;;;16.45;47.06;97276.19;4857208;28;20308;-76
2023/05/29 03:38:37;;;;;;;4.63;2.90;;;;;;;16.44;47.06;97279.88;4864713;29;20538;-77
2023/05/29 03:41:03;;;;;;;5.45;2.53;;;;;;;16.37;47.27;97268.16;4838458;29;20527;-77
2023/05/29 03:43:28;;;;;;;4.07;2.45;;;;;;;16.42;47.39;97276.75;4872154;28;20090;-76
2023/05/29 03:45:54;;;;;;;3.63;2.40;;;;;;;16.51;47.00;97289.28;4856670;29;20209;-77
2023/05/29 03:48:19;;;;;;;5.30;2.70;;;;;;;16.56;46.96;97284.75;4853242;28;20191;-77
2023/05/29 03:50:46;;;;;;;3.38;2.33;;;;;;;16.57;47.24;97294.22;4871146;29;20304;-76
2023/05/29 03:53:11;;;;;;;4.75;2.83;;;;;;;16.42;47.38;97292.53;4886253;28;21037;-76
2023/05/29 03:55:37;;;;;;;4.93;2.95;;;;;;;16.35;47.74;97296.53;4859710;29;20283;-77
2023/05/29 03:58:02;;;;;;;4.70;2.72;;;;;;;16.26;47.83;97298.97;4871867;29;20036;-76
2023/05/29 04:00:28;;;;;;;4.70;2.83;;;;;;;16.32;48.26;97307.63;4876859;28;20027;-77
2023/05/29 04:02:55;;;;;;;4.93;2.70;;;;;;;16.37;47.82;97305.72;4839616;29;20376;-76
2023/05/29 04:05:20;;;;;;;6.03;2.78;;;;;;;16.29;47.73;97304.47;4858388;29;20633;-76
2023/05/29 04:07:46;;;;;;;3.35;2.47;;;;;;;16.42;47.95;97310.91;4858319;29;20189;-76
2023/05/29 04:10:11;;;;;;;5.43;3.05;;;;;;;16.37;47.55;97313.59;4854740;29;20280;-77
2023/05/29 04:12:37;;;;;;;4.72;2.50;;;;;;;16.34;47.57;97308.91;4837839;29;20241;-77
2023/05/29 04:15:03;;;;;;;4.28;2.78;;;;;;;16.44;47.96;97313.28;4882786;28;20526;-76
2023/05/29 04:17:29;;;;;;;4.70;2.78;;;;;;;16.40;47.78;97318.31;4865096;28;20441;-77
2023/05/29 04:19:54;;;;;;;4.05;2.70;;;;;;;16.40;48.16;97322.75;4855585;29;20570;-77
2023/05/29 04:22:20;;;;;;;5.60;2.92;;;;;;;16.40;47.86;97325.38;4836281;29;20284;-76
2023/05/29 04:24:46;;;;;;;4.18;2.85;;;;;;;16.45;48.15;97327.97;4849628;29;20337;-76
2023/05/29 04:27:13;;;;;;;5.43;2.92;;;;;;;16.55;47.84;97329.72;4872845;28;20522;-77
2023/05/29 04:29:42;;;;;;;4.07;2.65;;;;;;;16.66;47.72;97334.59;4856220;29;20530;-77
2023/05/29 04:32:12;;;;;;;5.65;2.60;;;;;;;16.72;47.71;97339.78;4853686;28;20182;-76
2023/05/29 04:34:43;;;;;;;4.55;2.67;;;;;;;16.64;47.44;97341.97;4859553;28;20330;-76
2023/05/29 04:37:09;;;;;;;4.63;2.40;;;;;;;16.63;47.66;97340.41;4857808;29;20351;-76
2023/05/29 04:39:35;;;;;;;4.60;2.97;;;;;;;16.66;48.04;97342.47;4878617;28;20514;-76
2023/05/29 04:42:00;;;;;;;4.38;2.80;;;;;;;16.75;47.99;97353.16;4837324;29;20204;-77
2023/05/29 04:44:26;;;;;;;5.05;2.50;;;;;;;16.82;48.05;97342.31;4856336;29;20359;-77
2023/05/29 04:46:52;;;;;;;5.15;2.63;;;;;;;16.94;47.17;97342.72;4850822;29;20306;-76
2023/05/29 04:49:18;;;;;;;4.05;2.55;;;;;;;16.99;47.05;97345.28;4872462;29;20469;-77
2023/05/29 04:51:44;;;;;;;5.82;2.90;;;;;;;17.01;47.11;97356.31;4872401;28;20302;-77
2023/05/29 04:54:10;;;;;;;5.32;2.90;;;;;;;17.02;47.49;97355.25;4856616;29;20339;-77
2023/05/29 04:56:36;;;;;;;5.63;2.72;;;;;;;17.03;47.59;97364.72;4842363;29;20400;-76
2023/05/29 04:59:02;;;;;;;4.78;2.40;;;;;;;17.13;47.18;97368.28;4866219;29;20195;-76
2023/05/29 05:01:28;;;;;;;5.32;2.95;;;;;;;17.22;47.00;97375.28;4844009;28;20572;-77
2023/05/29 05:03:57;;;;;;;5.82;2.90;;;;;;;17.17;47.25;97367.44;4867218;28;20163;-76
2023/05/29 05:06:25;;;;;;;3.22;2.50;;;;;;;17.26;46.84;97372.88;4880388;28;20263;-76
2023/05/29 05:08:53;;;;;;;3.65;2.42;;;;;;;17.40;47.18;97365.81;4855354;29;20201;-76
2023/05/29 05:11:20;;;;;;;3.50;2.40;;;;;;;17.54;46.97;97376.44;4871614;28;20209;-76
2023/05/29 05:13:46;;;;;;;5.78;2.40;;;;;;;17.59;46.57;97365.06;4856165;28;20283;-77
2023/05/29 05:16:11;;;;;;;4.18;2.70;;;;;;;17.69;45.95;97369.41;4841207;28;20243;-77
2023/05/29 05:18:40;;;;;;;4.38;2.85;;;;;;;17.88;46.13;97379.97;4870591;28;20392;-77
2023/05/29 05:21:06;;;;;;;4.45;2.72;;;;;;;17.88;46.35;97378.09;4852767;29;20372;-76
2023/05/29 05:23:32;;;;;;;7.18;2.85;;;;;;;17.85;46.62;97383.13;4852789;28;20257;-77
2023/05/29 05:25:58;;;;;;;4.63;3.33;;;;;;;17.83;45.71;97380.78;4858159;29;20366;-77
2023/05/29 05:28:23;;;;;;;5.85;2.75;;;;;;;17.84;45.55;97392.09;4842529;29;20523;-78
2023/05/29 05:30:49;;;;;;;3.92;2.55;;;;;;;17.98;45.74;97392.19;4855253;29;20134;-77
2023/05/29 05:33:14;;;;;;;5.20;2.83;;;;;;;18.14;45.44;97381.13;4856420;29;20118;-76
2023/05/29 05:35:40;;;;;;;5.43;2.63;;;;;;;18.24;44.56;97379.41;4857234;29;20213;-76
2023/05/29 05:38:06;;;;;;;5.97;2.70;;;;;;;18.02;44.81;97388.69;4846758;29;20398;-78
2023/05/29 05:40:32;;;;;;;3.53;2.47;;;;;;;18.00;45.34;97387.41;4827653;28;20170;-77
2023/05/29 05:42:57;;;;;;;5.47;2.47;;;;;;;18.34;45.13;97384.50;4855025;29;20375;-76
2023/05/29 05:45:23;;;;;;;3.95;2.38;;;;;;;18.48;44.46;97369.47;4874638;28;20493;-77
2023/05/29 05:47:48;;;;;;;3.38;2.58;;;;;;;18.50;44.91;97375.25;4853027;28;20369;-76
2023/05/29 05:50:14;;;;;;;4.82;2.80;;;;;;;18.49;44.88;97384.25;4838010;28;20392;-78
2023/05/29 05:52:39;;;;;;;4.45;2.60;;;;;;;18.49;44.56;97378.97;4856496;29;20396;-78
2023/05/29 05:55:05;;;;;;;3.47;2.75;;;;;;;18.69;44.55;97385.72;4873854;29;20250;-75
2023/05/29 05:57:32;;;;;;;5.47;2.85;;;;;;;18.39;45.05;97387.06;4884786;28;20480;-76
2023/05/29 06:00:00;;;;;;;5.38;2.80;;;;;;;18.86;43.90;97395.72;4872770;28;20208;-77
2023/05/29 06:02:25;;;;;;;4.45;2.60;;;;;;;18.66;43.76;97385.53;4869844;29;20311;-76
2023/05/29 06:04:51;;;;;;;3.83;2.65;;;;;;;19.02;43.38;97392.81;4852893;29;20297;-76
2023/05/29 06:07:17;;;;;;;5.05;2.40;;;;;;;19.30;43.86;97393.56;4858611;29;20320;-77
2023/05/29 06:09:43;;;;;;;4.13;2.35;;;;;;;19.35;43.73;97400.63;4840282;28;20379;-79
2023/05/29 06:12:09;;;;;;;3.38;2.40;;;;;;;19.62;43.04;97399.75;4839683;29;20170;-76
2023/05/29 06:14:35;;;;;;;3.63;2.22;;;;;;;19.02;42.68;97393.59;4853473;29;20223;-77
2023/05/29 06:17:01;;;;;;;5.47;2.80;;;;;;;19.05;43.53;97392.22;4835284;29;20280;-76
2023/05/29 06:19:26;;;;;;;5.43;2.58;;;;;;;19.49;42.56;97411.94;4870217;29;20252;-78
2023/05/29 06:21:52;;;;;;;3.90;2.35;;;;;;;19.26;42.15;97408.44;4869996;29;20376;-75
2023/05/29 06:24:17;;;;;;;5.15;2.42;;;;;;;19.44;42.64;97410.16;4834195;29;20047;-76
2023/05/29 06:26:43;;;;;;;3.35;2.40;;;;;;;19.64;41.94;97411.59;4871742;28;20406;-76
2023/05/29 06:29:08;;;;;;;4.13;2.10;;;;;;;19.74;42.13;97423.03;4837985;29;20461;-77
2023/05/29 06:31:34;;;;;;;4.70;2.90;;;;;;;19.94;40.74;97409.38;4832444;29;20415;-78
2023/05/29 06:34:00;;;;;;;3.92;2.30;;;;;;;20.00;40.84;97412.72;4839179;29;20522;-77
2023/05/29 06:36:25;;;;;;;5.13;2.65;;;;;;;19.91;40.45;97425.88;4849179;28;20035;-77
2023/05/29 06:38:52;;;;;;;5.00;1.95;;;;;;;20.09;40.87;97418.84;4835654;29;20192;-78
2023/05/29 06:41:17;;;;;;;4.07;2.75;;;;;;;19.88;40.27;97423.81;4866233;28;20212;-78
2023/05/29 06:43:43;;;;;;;4.80;2.70;;;;;;;19.69;40.95;97423.13;4846791;29;20159;-77
2023/05/29 06:46:09;;;;;;;5.30;2.78;;;;;;;19.66;40.86;97413.97;4832974;28;20532;-77
2023/05/29 06:48:35;;;;;;;4.68;2.42;;;;;;;19.87;40.14;97419.59;4883141;28;20207;-75
2023/05/29 06:51:03;;;;;;;4.90;2.47;;;;;;;19.86;41.25;97419.88;4865402;29;20185;-77
2023/05/29 06:53:28;;;;;;;5.53;2.78;;;;;;;20.19;39.99;97425.75;4851274;29;20700;-77
2023/05/29 06:55:54;;;;;;;4.03;2.75;;;;;;;20.20;40.01;97422.00;4835677;29;20284;-75
2023/05/29 06:58:19;;;;;;;3.55;2.75;;;;;;;20.34;39.99;97428.03;4849715;28;20098;-77
2023/05/29 07:00:45;;;;;;;5.97;2.72;;;;;;;20.50;39.50;97422.38;4842945;28;20166;-76
2023/05/29 07:03:10;;;;;;;4.13;2.65;;;;;;;20.68;39.95;97421.41;4836528;29;20228;-77
2023/05/29 07:05:36;;;;;;;4.57;2.42;;;;;;;20.67;39.13;97427.00;4832893;29;20031;-76
2023/05/29 07:08:01;;;;;;;4.88;2.60;;;;;;;20.85;38.35;97428.63;4855905;29;20276;-76
2023/05/29 07:10:27;;;;;;;5.55;2.80;;;;;;;21.05;38.64;97429.19;4852542;28;20368;-77
2023/05/29 07:12:52;;;;;;;4.05;2.33;;;;;;;21.07;38.81;97427.78;4826756;28;20142;-78
2023/05/29 07:15:18;;;;;;;3.97;2.80;;;;;;;21.58;38.06;97430.91;4868309;28;20118;-77
2023/05/29 07:17:43;;;;;;;4.93;2.88;;;;;;;21.29;38.03;97437.50;4838521;29;20457;-77
2023/05/29 07:20:15;;;;;;;4.85;2.55;;;;;;;21.16;38.34;97432.34;4871154;28;20355;-77
2023/05/29 07:22:43;;;;;;;4.10;2.58;;;;;;;21.49;38.03;97432.78;4860161;28;20348;-77
2023/05/29 07:25:09;;;;;;;4.95;2.88;;;;;;;21.94;37.51;97429.06;4859354;29;20403;-76
2023/05/29 07:27:35;;;;;;;3.17;2.42;;;;;;;21.41;37.38;97428.19;4843855;29;20204;-76
2023/05/29 07:30:01;;;;;;;4.93;3.00;;;;;;;21.80;37.40;97437.94;4840892;29;20470;-77
2023/05/29 07:32:26;;;;;;;5.53;3.03;;;;;;;21.96;37.99;97432.19;4855287;29;20224;-76
2023/05/29 07:34:52;;;;;;;2.50;2.17;;;;;;;21.93;37.57;97433.56;4887015;28;20659;-77
2023/05/29 07:37:18;;;;;;;6.03;2.88;;;;;;;22.32;38.24;97434.50;4870280;28;20201;-76
2023/05/29 07:39:44;;;;;;;3.70;2.42;;;;;;;22.28;37.18;97433.59;4866415;28;20334;-78
2023/05/29 07:42:10;;;;;;;3.65;2.67;;;;;;;22.84;36.97;97428.28;4870977;29;20163;-77
2023/05/29 07:44:35;;;;;;;3.47;2.65;;;;;;;22.95;36.97;97424.19;4872092;29;20216;-77
2023/05/29 07:47:01;;;;;;;4.80;2.95;;;;;;;23.07;35.94;97433.41;4856436;29;20402;-78
2023/05/29 07:49:27;;;;;;;4.47;2.70;;;;;;;23.03;36.53;97429.78;4857372;29;20298;-76
2023/05/29 07:51:53;;;;;;;4.13;2.75;;;;;;;23.35;36.86;97437.16;4855250;28;20535;-77
2023/05/29 07:54:20;;;;;;;3.50;2.38;;;;;;;23.53;36.04;97437.06;4842544;29;20522;-77
2023/05/29 07:56:46;;;;;;;4.57;3.05;;;;;;;23.48;35.28;97446.00;4840626;28;20288;-76
2023/05/29 07:59:11;;;;;;;3.85;2.80;;;;;;;23.07;36.78;97441.38;4885448;28;20394;-76
2023/05/29 08:01:37;;;;;;;4.15;2.20;;;;;;;23.26;36.05;97439.06;4841007;28;20193;-78
2023/05/29 08:04:03;;;;;;;3.33;3.00;;;;;;;23.65;36.10;97442.44;4826541;29;20332;-79
2023/05/29 08:06:28;;;;;;;4.10;2.80;;;;;;;24.03;36.31;97430.91;4867872;28;20221;-78
2023/05/29 08:08:54;;;;;;;4.60;3.00;;;;;;;24.16;36.10;97446.94;4863287;28;20301;-76
2023/05/29 08:11:19;;;;;;;3.63;2.83;;;;;;;24.19;35.12;97431.09;4878578;28;20216;-75
2023/05/29 08:13:45;;;;;;;4.45;3.05;;;;;;;24.49;35.38;97434.41;4857505;28;20215;-78
2023/05/29 08:16:11;;;;;;;4.57;3.30;;;;;;;24.33;34.31;97436.13;4853721;29;20391;-77
2023/05/29 08:18:36;;;;;;;4.90;2.80;;;;;;;23.82;34.03;97433.59;4832591;29;20312;-77
2023/05/29 08:21:02;;;;;;;4.13;2.42;;;;;;;23.85;34.49;97443.56;4867254;28;20210;-77
2023/05/29 08:23:28;;;;;;;5.03;2.42;;;;;;;24.04;34.71;97452.97;4836665;29;20177;-77
2023/05/29 08:25:53;;;;;;;4.88;3.20;;;;;;;23.65;34.46;97450.41;4837332;29;20108;-77
2023/05/29 08:28:19;;;;;;;3.03;2.42;;;;;;;23.95;34.66;97453.03;4852698;29;20031;-76
2023/05/29 08:30:45;;;;;;;3.40;2.75;;;;;;;24.36;34.18;97456.75;4836068;29;20388;-76
2023/05/29 08:33:11;;;;;;;3.92;2.50;;;;;;;24.12;34.99;97455.56;4868232;28;20357;-76
2023/05/29 08:35:36;;;;;;;4.53;2.70;;;;;;;24.65;34.67;97445.22;4870101;29;20701;-77
2023/05/29 08:38:02;;;;;;;4.32;2.50;;;;;;;24.44;34.51;97450.59;4883132;28;20732;-75
2023/05/29 08:40:30;;;;;;;5.60;2.80;;;;;;;23.68;34.69;97448.97;4840368;28;20287;-76
2023/05/29 08:43:22;;;;;;;4.72;3.03;;;;;;;24.38;34.33;97437.81;4853571;29;20190;-78
2023/05/29 08:45:53;;;;;;;3.65;2.55;;;;;;;24.77;34.96;97441.81;4867759;28;20239;-77
2023/05/29 08:48:19;;;;;;;6.60;2.92;;;;;;;24.92;33.88;97445.72;4847696;29;20301;-77
2023/05/29 08:50:48;;;;;;;3.10;2.80;;;;;;;24.69;33.65;97442.69;4872389;28;20375;-77
2023/05/29 08:53:15;;;;;;;4.57;3.10;;;;;;;25.24;34.05;97436.06;4855368;29;20412;-76
2023/05/29 08:55:41;;;;;;;4.22;2.78;;;;;;;25.50;33.66;97442.16;4825074;28;20386;-80
2023/05/29 08:58:06;;;;;;;4.05;2.80;;;;;;;25.82;33.50;97437.00;4881109;28;20443;-77
2023/05/29 09:00:32;;;;;;;5.43;3.60;;;;;;;26.02;32.44;97441.41;4837385;29;20628;-77
2023/05/29 09:02:59;;;;;;;3.25;2.67;;;;;;;26.34;32.41;97442.28;4857006;29;20178;-78
2023/05/29 09:05:27;;;;;;;6.15;3.15;;;;;;;26.56;32.52;97450.81;4851183;29;20284;-77
2023/05/29 09:07:53;;;;;;;6.22;3.05;;;;;;;26.60;32.03;97446.38;4861226;29;20182;-78
2023/05/29 09:10:20;;;;;;;5.05;3.45;;;;;;;26.51;31.65;97456.41;4853726;29;20345;-78
2023/05/29 09:12:46;;;;;;;4.88;3.60;;;;;;;26.48;33.03;97447.22;4841898;29;20177;-78
2023/05/29 09:15:21;;;;;;;3.92;2.85;;;;;;;26.62;31.92;97452.16;4836185;28;20256;-77
2023/05/29 09:17:51;;;;;;;4.30;3.10;;;;;;;26.43;31.56;97442.13;4861637;28;20598;-78
2023/05/29 09:20:18;;;;;;;5.55;3.53;;;;;;;26.46;32.42;97448.66;4851826;28;20197;-76
2023/05/29 09:22:53;;;;;;;4.82;3.90;;;;;;;26.50;32.51;97449.53;4876858;28;20241;-77
2023/05/29 09:25:22;;;;;;;4.85;3.22;;;;;;;26.72;31.95;97449.00;4852109;29;20335;-79
2023/05/29 09:27:51;;;;;;;4.05;3.53;;;;;;;26.82;31.17;97450.38;4867491;28;20658;-79
2023/05/29 09:30:38;;;;;;;3.50;2.97;;;;;;;27.10;30.55;97444.94;4830622;28;20126;-78
2023/05/29 09:33:06;;;;;;;5.85;3.47;;;;;;;26.80;31.33;97449.16;4854684;28;20302;-79
2023/05/29 09:35:42;;;;;;;5.28;3.25;;;;;;;27.05;30.62;97439.84;4844761;29;20038;-78
2023/05/29 09:38:09;;;;;;;5.53;3.00;;;;;;;27.32;30.17;97450.03;4841723;28;20332;-78
2023/05/29 09:40:36;;;;;;;4.78;3.08;;;;;;;27.44;30.03;97440.00;4870518;29;20246;-78
2023/05/29 09:43:04;;;;;;;4.20;3.15;;;;;;;27.46;29.56;97440.41;4868229;28;20280;-79
2023/05/29 09:45:30;;;;;;;3.72;3.05;;;;;;;27.38;30.07;97462.78;4852427;29;20201;-77
2023/05/29 09:47:56;;;;;;;5.07;3.28;;;;;;;27.21;30.30;97460.44;4882842;28;20319;-76
2023/05/29 09:50:25;;;;;;;4.53;3.15;;;;;;;27.78;30.47;97451.03;4866552;29;20510;-78
2023/05/29 09:52:53;;;;;;;4.68;2.88;;;;;;;28.04;30.71;97452.34;4838655;29;20365;-78
2023/05/29 09:55:26;;;;;;;4.10;3.50;;;;;;;28.35;29.13;97448.72;4870389;28;20473;-77
2023/05/29 09:57:53;;;;;;;3.92;3.28;;;;;;;28.12;28.80;97453.25;4850702;29;20490;-78
2023/05/29 10:00:19;;;;;;;4.57;4.13;;;;;;;28.20;29.24;97453.03;4859729;28;20356;-77
2023/05/29 10:02:45;;;;;;;4.13;3.72;;;;;;;28.44;29.48;97451.16;4868781;29;20299;-79
2023/05/29 10:05:15;;;;;;;4.53;3.38;;;;;;;28.69;28.19;97450.88;4840450;28;20386;-80
2023/05/29 10:07:46;;;;;;;4.35;3.72;;;;;;;28.85;28.69;97445.38;4851386;29;20129;-78
2023/05/29 10:10:12;;;;;;;5.97;3.40;;;;;;;28.50;28.58;97447.06;4852431;28;20277;-78
2023/05/29 10:12:38;;;;;;;4.65;3.13;;;;;;;28.57;28.10;97447.22;4835859;29;20388;-79
2023/05/29 10:15:07;;;;;;;4.72;3.70;;;;;;;29.00;28.25;97433.00;4836587;28;20440;-78
2023/05/29 10:17:33;;;;;;;4.53;3.38;;;;;;;28.81;28.55;97439.97;4854726;29;20803;-78
2023/05/29 10:20:02;;;;;;;4.18;3.15;;;;;;;29.03;28.05;97430.34;4854199;29;20242;-78
2023/05/29 10:22:28;;;;;;;5.57;3.42;;;;;;;28.66;28.29;97427.47;4852959;29;20267;-78
2023/05/29 10:24:56;;;;;;;5.28;3.70;;;;;;;29.23;28.03;97427.59;4838405;28;20290;-79
2023/05/29 10:27:21;;;;;;;5.18;3.78;;;;;;;28.85;28.00;97429.31;4866253;29;20150;-78
2023/05/29 10:29:53;;;;;;;4.88;3.53;;;;;;;28.63;27.75;97433.53;4865359;28;20654;-78
2023/05/29 10:32:24;;;;;;;3.95;3.53;;;;;;;28.83;28.03;97426.97;4829514;29;20455;-79
2023/05/29 10:34:59;;;;;;;4.80;3.83;;;;;;;28.88;27.76;97434.72;4844417;29;20451;-77
2023/05/29 10:37:33;;;;;;;3.83;3.35;;;;;;;29.45;28.18;97431.34;4872742;28;20338;-78
2023/05/29 10:40:17;;;;;;;;;;;;;;;29.43;26.83;97420.97;4889275;28;20286;-78
2023/05/29 10:42:48;;;;;;;3.63;3.10;;;;;;;29.82;27.46;97430.72;4857543;29;20114;-77
2023/05/29 10:45:32;;;;;;;4.95;3.35;;;;;;;29.97;26.98;97420.91;4856504;29;20098;-77
2023/05/29 10:48:07;;;;;;;4.38;3.20;;;;;;;30.03;26.52;97422.91;4862777;29;20253;-78
2023/05/29 10:50:35;;;;;;;;;;;;;;;30.19;26.53;97416.53;4870290;29;20321;-77
2023/05/29 10:53:01;;;;;;;5.80;3.35;;;;;;;30.27;26.82;97414.72;4885283;28;20088;-78
2023/05/29 10:55:34;;;;;;;4.25;3.65;;;;;;;30.28;26.43;97419.72;4873454;28;20371;-77
2023/05/29 10:58:07;;;;;;;5.57;3.65;;;;;;;30.28;26.81;97422.41;4840015;29;20172;-78
2023/05/29 11:00:33;;;;;;;4.70;3.40;;;;;;;30.08;26.52;97419.13;4856754;29;20373;-76
2023/05/29 11:03:07;;;;;;;5.15;3.03;;;;;;;30.34;26.59;97425.53;4852075;29;20654;-78
2023/05/29 11:05:32;;;;;;;4.93;3.17;;;;;;;29.87;26.16;97433.06;4870426;29;20313;-77
2023/05/29 11:08:00;;;;;;;4.05;3.13;;;;;;;29.81;26.33;97424.56;4857503;29;20245;-77
2023/05/29 11:11:01;;;;;;;5.25;3.25;;;;;;;29.53;26.49;97422.28;4871455;29;20326;-77
2023/05/29 11:13:36;;;;;;;5.55;3.65;;;;;;;29.34;27.02;97425.84;4804395;29;20107;-76
2023/05/29 11:16:14;;;;;;;4.72;3.03;;;;;;;28.72;27.43;97428.69;4799333;29;20234;-78
2023/05/29 11:18:46;;;;;;;3.97;3.35;;;;;;;28.91;26.86;97425.97;4815433;29;20110;-77
2023/05/29 11:21:24;;;;;;;4.55;3.50;;;;;;;28.80;27.10;97438.41;4817023;29;20309;-76
2023/05/29 11:23:51;;;;;;;4.47;3.72;;;;;;;28.62;27.05;97423.94;4804954;29;20037;-78
2023/05/29 11:26:18;;;;;;;4.55;3.60;;;;;;;28.54;27.23;97434.50;4830749;29;20229;-77
2023/05/29 11:28:43;;;;;;;4.38;3.22;;;;;;;27.75;27.50;97424.97;4814577;29;20191;-77
2023/05/29 11:31:09;;;;;;;4.90;3.40;;;;;;;27.44;28.34;97426.63;4810044;29;20486;-77
2023/05/29 11:33:40;;;;;;;3.92;3.53;;;;;;;27.42;29.08;97434.22;4829566;29;20040;-77